sensor_id;sensor_type;location;lat;lon;timestamp;temperature;humidity
7411;DHT22;3747;48.628;9.058;2024-02-14T00:02:21;3.00;99.90
7411;DHT22;3747;48.628;9.058;2024-02-14T00:04:47;3.10;99.90
7411;DHT22;3747;48.628;9.058;2024-02-14T00:07:14;3.20;99.90
7411;DHT22;3747;48.628;9.058;2024-02-14T00:09:41;3.30;99.90
7411;DHT22;3747;48.628;9.058;2024-02-14T00:12:07;3.40;99.90
7411;DHT22;3747;48.628;9.058;2024-02-14T00:14:38;3.40;99.90
7411;DHT22;3747;48.628;9.058;2024-02-14T00:17:05;3.40;99.90
7411;DHT22;3747;48.628;9.058;2024-02-14T00:19:32;3.40;99.90
7411;DHT22;3747;48.628;9.058;2024-02-14T00:21:59;3.50;99.90
7411;DHT22;3747;48.628;9.058;2024-02-14T00:24:25;3.50;99.90
7411;DHT22;3747;48.628;9.058;2024-02-14T00:26:54;3.60;99.90
7411;DHT22;3747;48.628;9.058;2024-02-14T00:29:22;3.80;99.90
7411;DHT22;3747;48.628;9.058;2024-02-14T00:31:50;3.80;99.90
7411;DHT22;3747;48.628;9.058;2024-02-14T00:34:17;3.80;99.90
7411;DHT22;3747;48.628;9.058;2024-02-14T00:36:44;3.80;99.90
7411;DHT22;3747;48.628;9.058;2024-02-14T00:39:11;3.90;99.90
7411;DHT22;3747;48.628;9.058;2024-02-14T00:41:38;3.90;99.90
7411;DHT22;3747;48.628;9.058;2024-02-14T00:44:05;3.90;99.90
7411;DHT22;3747;48.628;9.058;2024-02-14T00:46:32;3.90;99.90
7411;DHT22;3747;48.628;9.058;2024-02-14T00:49:00;3.90;99.90
7411;DHT22;3747;48.628;9.058;2024-02-14T00:51:26;3.90;99.90
7411;DHT22;3747;48.628;9.058;2024-02-14T00:53:53;4.00;99.90
7411;DHT22;3747;48.628;9.058;2024-02-14T00:56:20;4.00;99.90
7411;DHT22;3747;48.628;9.058;2024-02-14T00:58:48;4.10;99.90
7411;DHT22;3747;48.628;9.058;2024-02-14T01:01:15;4.20;99.90
7411;DHT22;3747;48.628;9.058;2024-02-14T01:03:42;4.20;99.90
7411;DHT22;3747;48.628;9.058;2024-02-14T01:06:10;4.20;99.90
7411;DHT22;3747;48.628;9.058;2024-02-14T01:08:36;4.20;99.90
7411;DHT22;3747;48.628;9.058;2024-02-14T01:11:03;4.10;99.90
7411;DHT22;3747;48.628;9.058;2024-02-14T01:13:30;4.10;99.90
7411;DHT22;3747;48.628;9.058;2024-02-14T01:15:57;4.10;99.90
7411;DHT22;3747;48.628;9.058;2024-02-14T01:18:23;4.00;99.90
7411;DHT22;3747;48.628;9.058;2024-02-14T01:20:50;3.90;99.90
7411;DHT22;3747;48.628;9.058;2024-02-14T01:23:18;3.90;99.90
7411;DHT22;3747;48.628;9.058;2024-02-14T01:25:45;3.80;99.90
7411;DHT22;3747;48.628;9.058;2024-02-14T01:28:12;3.70;99.90
7411;DHT22;3747;48.628;9.058;2024-02-14T01:30:38;3.70;99.90
7411;DHT22;3747;48.628;9.058;2024-02-14T01:33:06;3.70;99.90
7411;DHT22;3747;48.628;9.058;2024-02-14T01:35:33;3.70;99.90
7411;DHT22;3747;48.628;9.058;2024-02-14T01:38:00;3.70;99.90
7411;DHT22;3747;48.628;9.058;2024-02-14T01:40:29;3.70;99.90
7411;DHT22;3747;48.628;9.058;2024-02-14T01:42:56;3.70;99.90
7411;DHT22;3747;48.628;9.058;2024-02-14T01:45:22;3.60;99.90
7411;DHT22;3747;48.628;9.058;2024-02-14T01:47:50;3.60;99.90
7411;DHT22;3747;48.628;9.058;2024-02-14T01:50:17;3.50;99.90
7411;DHT22;3747;48.628;9.058;2024-02-14T01:52:51;3.60;99.90
7411;DHT22;3747;48.628;9.058;2024-02-14T01:55:18;3.60;99.90
7411;DHT22;3747;48.628;9.058;2024-02-14T01:57:46;3.60;99.90
7411;DHT22;3747;48.628;9.058;2024-02-14T02:00:13;3.50;99.90
7411;DHT22;3747;48.628;9.058;2024-02-14T02:02:43;3.50;99.90
7411;DHT22;3747;48.628;9.058;2024-02-14T02:05:12;3.60;99.90
7411;DHT22;3747;48.628;9.058;2024-02-14T02:07:38;3.60;99.90
7411;DHT22;3747;48.628;9.058;2024-02-14T02:10:09;3.60;99.90
7411;DHT22;3747;48.628;9.058;2024-02-14T02:12:35;3.60;99.90
7411;DHT22;3747;48.628;9.058;2024-02-14T02:15:06;3.60;99.90
7411;DHT22;3747;48.628;9.058;2024-02-14T02:17:36;3.70;99.90
7411;DHT22;3747;48.628;9.058;2024-02-14T02:20:03;3.70;99.90
7411;DHT22;3747;48.628;9.058;2024-02-14T02:22:32;3.80;99.90
7411;DHT22;3747;48.628;9.058;2024-02-14T02:25:02;3.70;99.90
7411;DHT22;3747;48.628;9.058;2024-02-14T02:27:28;3.80;99.90
7411;DHT22;3747;48.628;9.058;2024-02-14T02:29:55;3.80;99.90
7411;DHT22;3747;48.628;9.058;2024-02-14T02:32:22;3.80;99.90
7411;DHT22;3747;48.628;9.058;2024-02-14T02:34:48;3.80;99.90
7411;DHT22;3747;48.628;9.058;2024-02-14T02:37:15;3.80;99.90
7411;DHT22;3747;48.628;9.058;2024-02-14T02:39:43;3.80;99.90
7411;DHT22;3747;48.628;9.058;2024-02-14T02:42:11;3.70;99.90
7411;DHT22;3747;48.628;9.058;2024-02-14T02:44:39;3.50;99.90
7411;DHT22;3747;48.628;9.058;2024-02-14T02:47:07;3.50;99.90
7411;DHT22;3747;48.628;9.058;2024-02-14T02:49:36;3.40;99.90
7411;DHT22;3747;48.628;9.058;2024-02-14T02:52:04;3.40;99.90
7411;DHT22;3747;48.628;9.058;2024-02-14T02:54:30;3.40;99.90
7411;DHT22;3747;48.628;9.058;2024-02-14T02:56:57;3.30;99.90
7411;DHT22;3747;48.628;9.058;2024-02-14T02:59:26;3.30;99.90
7411;DHT22;3747;48.628;9.058;2024-02-14T03:01:55;3.30;99.90
7411;DHT22;3747;48.628;9.058;2024-02-14T03:04:23;3.40;99.90
7411;DHT22;3747;48.628;9.058;2024-02-14T03:06:50;3.40;99.90
7411;DHT22;3747;48.628;9.058;2024-02-14T03:09:17;3.50;99.90
7411;DHT22;3747;48.628;9.058;2024-02-14T03:11:46;3.50;99.90
7411;DHT22;3747;48.628;9.058;2024-02-14T03:14:12;3.50;99.90
7411;DHT22;3747;48.628;9.058;2024-02-14T03:16:40;3.50;99.90
7411;DHT22;3747;48.628;9.058;2024-02-14T03:19:08;3.50;99.90
7411;DHT22;3747;48.628;9.058;2024-02-14T03:21:34;3.50;99.90
7411;DHT22;3747;48.628;9.058;2024-02-14T03:24:01;3.50;99.90
7411;DHT22;3747;48.628;9.058;2024-02-14T03:26:28;3.50;99.90
7411;DHT22;3747;48.628;9.058;2024-02-14T03:28:58;3.50;99.90
7411;DHT22;3747;48.628;9.058;2024-02-14T03:31:24;3.50;99.90
7411;DHT22;3747;48.628;9.058;2024-02-14T03:33:52;3.40;99.90
7411;DHT22;3747;48.628;9.058;2024-02-14T03:36:19;3.30;99.90
7411;DHT22;3747;48.628;9.058;2024-02-14T03:38:46;3.20;99.90
7411;DHT22;3747;48.628;9.058;2024-02-14T03:41:12;3.20;99.90
7411;DHT22;3747;48.628;9.058;2024-02-14T03:43:39;3.30;99.90
7411;DHT22;3747;48.628;9.058;2024-02-14T03:46:06;3.30;99.90
7411;DHT22;3747;48.628;9.058;2024-02-14T03:48:32;3.30;99.90
7411;DHT22;3747;48.628;9.058;2024-02-14T03:51:00;3.30;99.90
7411;DHT22;3747;48.628;9.058;2024-02-14T03:53:28;3.30;99.90
7411;DHT22;3747;48.628;9.058;2024-02-14T03:55:56;3.40;99.90
7411;DHT22;3747;48.628;9.058;2024-02-14T03:58:23;3.40;99.90
7411;DHT22;3747;48.628;9.058;2024-02-14T04:00:50;3.60;99.90
7411;DHT22;3747;48.628;9.058;2024-02-14T04:03:17;3.60;99.90
7411;DHT22;3747;48.628;9.058;2024-02-14T04:05:44;3.70;99.90
7411;DHT22;3747;48.628;9.058;2024-02-14T04:08:14;3.70;99.90
7411;DHT22;3747;48.628;9.058;2024-02-14T04:10:41;3.60;99.90
7411;DHT22;3747;48.628;9.058;2024-02-14T04:13:08;3.40;99.90
7411;DHT22;3747;48.628;9.058;2024-02-14T04:15:35;3.40;99.90
7411;DHT22;3747;48.628;9.058;2024-02-14T04:18:02;3.30;99.90
7411;DHT22;3747;48.628;9.058;2024-02-14T04:20:31;3.30;99.90
7411;DHT22;3747;48.628;9.058;2024-02-14T04:22:58;3.40;99.90
7411;DHT22;3747;48.628;9.058;2024-02-14T04:25:26;3.40;99.90
7411;DHT22;3747;48.628;9.058;2024-02-14T04:27:53;3.40;99.90
7411;DHT22;3747;48.628;9.058;2024-02-14T04:30:19;3.20;99.90
7411;DHT22;3747;48.628;9.058;2024-02-14T04:32:46;3.10;99.90
7411;DHT22;3747;48.628;9.058;2024-02-14T04:35:14;3.00;99.90
7411;DHT22;3747;48.628;9.058;2024-02-14T04:37:41;3.00;99.90
7411;DHT22;3747;48.628;9.058;2024-02-14T04:40:12;2.90;99.90
7411;DHT22;3747;48.628;9.058;2024-02-14T04:42:40;2.80;99.90
7411;DHT22;3747;48.628;9.058;2024-02-14T04:45:07;2.70;99.90
7411;DHT22;3747;48.628;9.058;2024-02-14T04:47:34;2.70;99.90
7411;DHT22;3747;48.628;9.058;2024-02-14T04:50:00;2.60;99.90
7411;DHT22;3747;48.628;9.058;2024-02-14T04:52:29;2.60;99.90
7411;DHT22;3747;48.628;9.058;2024-02-14T04:54:56;2.50;99.90
7411;DHT22;3747;48.628;9.058;2024-02-14T04:57:23;2.40;99.90
7411;DHT22;3747;48.628;9.058;2024-02-14T04:59:52;2.40;99.90
7411;DHT22;3747;48.628;9.058;2024-02-14T05:02:18;2.40;99.90
7411;DHT22;3747;48.628;9.058;2024-02-14T05:04:45;2.50;99.90
7411;DHT22;3747;48.628;9.058;2024-02-14T05:07:12;2.60;99.90
7411;DHT22;3747;48.628;9.058;2024-02-14T05:09:38;2.80;99.90
7411;DHT22;3747;48.628;9.058;2024-02-14T05:12:05;3.10;99.90
7411;DHT22;3747;48.628;9.058;2024-02-14T05:14:37;3.20;99.90
7411;DHT22;3747;48.628;9.058;2024-02-14T05:17:07;3.40;99.90
7411;DHT22;3747;48.628;9.058;2024-02-14T05:19:33;3.70;99.90
7411;DHT22;3747;48.628;9.058;2024-02-14T05:22:00;3.90;99.90
7411;DHT22;3747;48.628;9.058;2024-02-14T05:24:27;4.10;99.90
7411;DHT22;3747;48.628;9.058;2024-02-14T05:26:54;4.20;99.90
7411;DHT22;3747;48.628;9.058;2024-02-14T05:29:21;4.20;99.90
7411;DHT22;3747;48.628;9.058;2024-02-14T05:31:48;4.30;99.90
7411;DHT22;3747;48.628;9.058;2024-02-14T05:34:16;4.50;99.90
7411;DHT22;3747;48.628;9.058;2024-02-14T05:36:43;4.60;99.90
7411;DHT22;3747;48.628;9.058;2024-02-14T05:39:11;4.60;99.90
7411;DHT22;3747;48.628;9.058;2024-02-14T05:41:37;4.70;99.90
7411;DHT22;3747;48.628;9.058;2024-02-14T05:44:04;4.70;99.90
7411;DHT22;3747;48.628;9.058;2024-02-14T05:46:31;4.70;99.90
7411;DHT22;3747;48.628;9.058;2024-02-14T05:48:58;4.80;99.90
7411;DHT22;3747;48.628;9.058;2024-02-14T05:51:26;4.70;99.90
7411;DHT22;3747;48.628;9.058;2024-02-14T05:53:52;4.70;99.90
7411;DHT22;3747;48.628;9.058;2024-02-14T05:56:20;4.70;99.90
7411;DHT22;3747;48.628;9.058;2024-02-14T05:58:47;4.50;99.90
7411;DHT22;3747;48.628;9.058;2024-02-14T06:01:13;4.50;99.90
7411;DHT22;3747;48.628;9.058;2024-02-14T06:03:41;4.30;99.90
7411;DHT22;3747;48.628;9.058;2024-02-14T06:06:08;4.10;99.90
7411;DHT22;3747;48.628;9.058;2024-02-14T06:08:36;4.00;99.90
7411;DHT22;3747;48.628;9.058;2024-02-14T06:11:03;4.00;99.90
7411;DHT22;3747;48.628;9.058;2024-02-14T06:13:29;3.90;99.90
7411;DHT22;3747;48.628;9.058;2024-02-14T06:15:56;3.80;99.90
7411;DHT22;3747;48.628;9.058;2024-02-14T06:18:23;3.90;99.90
7411;DHT22;3747;48.628;9.058;2024-02-14T06:20:49;3.90;99.90
7411;DHT22;3747;48.628;9.058;2024-02-14T06:23:16;3.90;99.90
7411;DHT22;3747;48.628;9.058;2024-02-14T06:25:44;4.00;99.90
7411;DHT22;3747;48.628;9.058;2024-02-14T06:28:10;4.10;99.90
7411;DHT22;3747;48.628;9.058;2024-02-14T06:30:37;4.10;99.90
7411;DHT22;3747;48.628;9.058;2024-02-14T06:33:04;4.10;99.90
7411;DHT22;3747;48.628;9.058;2024-02-14T06:35:31;4.20;99.90
7411;DHT22;3747;48.628;9.058;2024-02-14T06:37:57;4.40;99.90
7411;DHT22;3747;48.628;9.058;2024-02-14T06:40:25;4.80;99.90
7411;DHT22;3747;48.628;9.058;2024-02-14T06:42:54;5.10;99.90
7411;DHT22;3747;48.628;9.058;2024-02-14T06:45:21;5.10;99.90
7411;DHT22;3747;48.628;9.058;2024-02-14T06:47:47;5.10;99.90
7411;DHT22;3747;48.628;9.058;2024-02-14T06:50:14;5.20;99.90
7411;DHT22;3747;48.628;9.058;2024-02-14T06:52:41;5.20;99.90
7411;DHT22;3747;48.628;9.058;2024-02-14T06:55:08;5.10;99.90
7411;DHT22;3747;48.628;9.058;2024-02-14T06:57:34;5.10;99.90
7411;DHT22;3747;48.628;9.058;2024-02-14T07:00:03;5.10;99.90
7411;DHT22;3747;48.628;9.058;2024-02-14T07:02:32;5.00;99.90
7411;DHT22;3747;48.628;9.058;2024-02-14T07:04:58;5.10;99.90
7411;DHT22;3747;48.628;9.058;2024-02-14T07:07:25;5.20;99.90
7411;DHT22;3747;48.628;9.058;2024-02-14T07:09:53;5.20;99.90
7411;DHT22;3747;48.628;9.058;2024-02-14T07:12:19;5.20;99.90
7411;DHT22;3747;48.628;9.058;2024-02-14T07:14:46;5.30;99.90
7411;DHT22;3747;48.628;9.058;2024-02-14T07:17:14;5.40;99.90
7411;DHT22;3747;48.628;9.058;2024-02-14T07:19:41;5.50;99.90
7411;DHT22;3747;48.628;9.058;2024-02-14T07:22:09;5.60;99.90
7411;DHT22;3747;48.628;9.058;2024-02-14T07:24:35;5.70;99.90
7411;DHT22;3747;48.628;9.058;2024-02-14T07:27:02;5.80;99.90
7411;DHT22;3747;48.628;9.058;2024-02-14T07:29:29;6.00;99.90
7411;DHT22;3747;48.628;9.058;2024-02-14T07:31:56;6.20;99.90
7411;DHT22;3747;48.628;9.058;2024-02-14T07:34:25;6.30;99.90
7411;DHT22;3747;48.628;9.058;2024-02-14T07:36:52;6.40;99.90
7411;DHT22;3747;48.628;9.058;2024-02-14T07:39:18;6.50;99.90
7411;DHT22;3747;48.628;9.058;2024-02-14T07:41:45;6.60;99.90
7411;DHT22;3747;48.628;9.058;2024-02-14T07:44:12;6.70;99.90
7411;DHT22;3747;48.628;9.058;2024-02-14T07:46:39;6.80;99.90
7411;DHT22;3747;48.628;9.058;2024-02-14T07:49:06;6.90;99.90
7411;DHT22;3747;48.628;9.058;2024-02-14T07:51:35;7.00;99.90
7411;DHT22;3747;48.628;9.058;2024-02-14T07:54:03;7.20;99.90
7411;DHT22;3747;48.628;9.058;2024-02-14T07:56:30;7.30;99.90
7411;DHT22;3747;48.628;9.058;2024-02-14T07:58:57;7.40;99.90
7411;DHT22;3747;48.628;9.058;2024-02-14T08:01:24;7.50;99.90
7411;DHT22;3747;48.628;9.058;2024-02-14T08:03:51;7.60;99.90
7411;DHT22;3747;48.628;9.058;2024-02-14T08:06:18;7.80;99.90
7411;DHT22;3747;48.628;9.058;2024-02-14T08:08:46;7.80;99.90
7411;DHT22;3747;48.628;9.058;2024-02-14T08:11:14;7.80;99.90
7411;DHT22;3747;48.628;9.058;2024-02-14T08:13:41;7.70;99.90
7411;DHT22;3747;48.628;9.058;2024-02-14T08:16:07;7.70;99.90
7411;DHT22;3747;48.628;9.058;2024-02-14T08:18:34;7.70;99.90
7411;DHT22;3747;48.628;9.058;2024-02-14T08:21:01;7.70;99.90
7411;DHT22;3747;48.628;9.058;2024-02-14T08:23:29;7.70;99.90
7411;DHT22;3747;48.628;9.058;2024-02-14T08:25:57;7.80;99.90
7411;DHT22;3747;48.628;9.058;2024-02-14T08:28:24;7.80;99.90
7411;DHT22;3747;48.628;9.058;2024-02-14T08:30:50;7.90;99.90
7411;DHT22;3747;48.628;9.058;2024-02-14T08:33:16;7.90;99.90
7411;DHT22;3747;48.628;9.058;2024-02-14T08:35:43;8.00;99.90
7411;DHT22;3747;48.628;9.058;2024-02-14T08:38:10;8.00;99.90
7411;DHT22;3747;48.628;9.058;2024-02-14T08:40:36;8.10;99.90
7411;DHT22;3747;48.628;9.058;2024-02-14T08:43:04;8.10;99.90
7411;DHT22;3747;48.628;9.058;2024-02-14T08:45:32;8.30;99.90
7411;DHT22;3747;48.628;9.058;2024-02-14T08:48:00;8.30;99.90
7411;DHT22;3747;48.628;9.058;2024-02-14T08:50:27;8.40;99.90
7411;DHT22;3747;48.628;9.058;2024-02-14T08:52:55;8.40;99.90
7411;DHT22;3747;48.628;9.058;2024-02-14T08:55:22;8.50;99.90
7411;DHT22;3747;48.628;9.058;2024-02-14T08:57:49;8.50;99.90
7411;DHT22;3747;48.628;9.058;2024-02-14T09:00:17;8.70;99.90
7411;DHT22;3747;48.628;9.058;2024-02-14T09:02:45;8.70;99.90
7411;DHT22;3747;48.628;9.058;2024-02-14T09:05:12;8.70;99.90
7411;DHT22;3747;48.628;9.058;2024-02-14T09:07:39;8.70;99.90
7411;DHT22;3747;48.628;9.058;2024-02-14T09:10:07;8.80;99.90
7411;DHT22;3747;48.628;9.058;2024-02-14T09:12:35;8.90;99.90
7411;DHT22;3747;48.628;9.058;2024-02-14T09:15:03;8.90;99.90
7411;DHT22;3747;48.628;9.058;2024-02-14T09:17:31;8.90;99.90
7411;DHT22;3747;48.628;9.058;2024-02-14T09:19:58;9.00;99.90
7411;DHT22;3747;48.628;9.058;2024-02-14T09:22:24;9.10;99.90
7411;DHT22;3747;48.628;9.058;2024-02-14T09:24:51;9.10;99.90
7411;DHT22;3747;48.628;9.058;2024-02-14T09:27:18;9.00;99.90
7411;DHT22;3747;48.628;9.058;2024-02-14T09:29:44;9.10;99.90
7411;DHT22;3747;48.628;9.058;2024-02-14T09:32:11;9.10;99.90
7411;DHT22;3747;48.628;9.058;2024-02-14T09:34:39;9.10;99.90
7411;DHT22;3747;48.628;9.058;2024-02-14T09:37:06;9.10;99.90
7411;DHT22;3747;48.628;9.058;2024-02-14T09:39:33;9.20;99.90
7411;DHT22;3747;48.628;9.058;2024-02-14T09:42:05;9.30;99.90
7411;DHT22;3747;48.628;9.058;2024-02-14T09:44:35;9.50;99.90
7411;DHT22;3747;48.628;9.058;2024-02-14T09:47:02;9.70;99.90
7411;DHT22;3747;48.628;9.058;2024-02-14T09:49:30;9.70;99.90
7411;DHT22;3747;48.628;9.058;2024-02-14T09:51:59;9.70;99.90
7411;DHT22;3747;48.628;9.058;2024-02-14T09:54:28;9.80;99.90
7411;DHT22;3747;48.628;9.058;2024-02-14T09:56:58;9.90;99.90
7411;DHT22;3747;48.628;9.058;2024-02-14T09:59:24;9.80;99.90
7411;DHT22;3747;48.628;9.058;2024-02-14T10:01:51;9.80;99.90
7411;DHT22;3747;48.628;9.058;2024-02-14T10:04:18;10.00;99.90
7411;DHT22;3747;48.628;9.058;2024-02-14T10:06:46;10.00;99.90
7411;DHT22;3747;48.628;9.058;2024-02-14T10:09:19;10.00;99.90
7411;DHT22;3747;48.628;9.058;2024-02-14T10:11:45;10.00;99.90
7411;DHT22;3747;48.628;9.058;2024-02-14T10:14:13;9.90;99.90
7411;DHT22;3747;48.628;9.058;2024-02-14T10:16:39;9.80;99.90
7411;DHT22;3747;48.628;9.058;2024-02-14T10:19:14;10.00;99.90
7411;DHT22;3747;48.628;9.058;2024-02-14T10:21:41;9.90;99.90
7411;DHT22;3747;48.628;9.058;2024-02-14T10:24:08;9.80;99.90
7411;DHT22;3747;48.628;9.058;2024-02-14T10:26:37;9.80;99.90
7411;DHT22;3747;48.628;9.058;2024-02-14T10:29:05;9.80;99.90
7411;DHT22;3747;48.628;9.058;2024-02-14T10:31:36;9.90;99.90
7411;DHT22;3747;48.628;9.058;2024-02-14T10:34:02;10.00;99.90
7411;DHT22;3747;48.628;9.058;2024-02-14T10:36:31;10.20;99.90
7411;DHT22;3747;48.628;9.058;2024-02-14T10:39:01;10.40;99.90
7411;DHT22;3747;48.628;9.058;2024-02-14T10:41:30;10.60;99.90
7411;DHT22;3747;48.628;9.058;2024-02-14T10:44:02;10.70;99.90
7411;DHT22;3747;48.628;9.058;2024-02-14T10:46:31;10.80;99.90
7411;DHT22;3747;48.628;9.058;2024-02-14T10:49:02;10.90;99.90
7411;DHT22;3747;48.628;9.058;2024-02-14T10:51:31;10.90;99.90
7411;DHT22;3747;48.628;9.058;2024-02-14T10:53:58;10.90;99.90
7411;DHT22;3747;48.628;9.058;2024-02-14T10:56:28;10.80;99.90
7411;DHT22;3747;48.628;9.058;2024-02-14T10:58:56;11.00;99.90
7411;DHT22;3747;48.628;9.058;2024-02-14T11:01:26;11.10;99.90
7411;DHT22;3747;48.628;9.058;2024-02-14T11:03:56;11.30;99.90
7411;DHT22;3747;48.628;9.058;2024-02-14T11:06:23;11.40;99.90
7411;DHT22;3747;48.628;9.058;2024-02-14T11:08:57;11.40;99.90
7411;DHT22;3747;48.628;9.058;2024-02-14T11:11:28;11.40;99.90
7411;DHT22;3747;48.628;9.058;2024-02-14T11:13:56;11.30;99.90
7411;DHT22;3747;48.628;9.058;2024-02-14T11:16:27;11.20;99.90
7411;DHT22;3747;48.628;9.058;2024-02-14T11:18:56;11.10;99.90
7411;DHT22;3747;48.628;9.058;2024-02-14T11:21:31;11.00;99.90
7411;DHT22;3747;48.628;9.058;2024-02-14T11:24:04;11.10;99.90
7411;DHT22;3747;48.628;9.058;2024-02-14T11:26:46;11.10;99.90
7411;DHT22;3747;48.628;9.058;2024-02-14T11:29:14;11.20;99.90
7411;DHT22;3747;48.628;9.058;2024-02-14T11:31:43;11.30;99.90
7411;DHT22;3747;48.628;9.058;2024-02-14T11:34:11;11.70;99.90
7411;DHT22;3747;48.628;9.058;2024-02-14T11:36:39;12.20;99.90
7411;DHT22;3747;48.628;9.058;2024-02-14T11:39:08;12.30;99.90
7411;DHT22;3747;48.628;9.058;2024-02-14T11:41:35;12.10;99.90
7411;DHT22;3747;48.628;9.058;2024-02-14T11:44:03;12.00;99.90
7411;DHT22;3747;48.628;9.058;2024-02-14T11:46:38;11.80;99.90
7411;DHT22;3747;48.628;9.058;2024-02-14T11:49:06;11.60;99.90
7411;DHT22;3747;48.628;9.058;2024-02-14T11:51:34;11.60;99.90
7411;DHT22;3747;48.628;9.058;2024-02-14T11:54:02;11.60;99.90
7411;DHT22;3747;48.628;9.058;2024-02-14T11:56:30;11.70;99.90
7411;DHT22;3747;48.628;9.058;2024-02-14T11:58:59;11.90;99.90
7411;DHT22;3747;48.628;9.058;2024-02-14T12:01:28;11.90;99.90
7411;DHT22;3747;48.628;9.058;2024-02-14T12:03:56;11.80;99.90
7411;DHT22;3747;48.628;9.058;2024-02-14T12:06:24;11.70;99.90
7411;DHT22;3747;48.628;9.058;2024-02-14T12:08:51;11.70;99.90
7411;DHT22;3747;48.628;9.058;2024-02-14T12:11:18;11.80;99.90
7411;DHT22;3747;48.628;9.058;2024-02-14T12:13:49;11.90;99.90
7411;DHT22;3747;48.628;9.058;2024-02-14T12:16:16;11.90;99.90
7411;DHT22;3747;48.628;9.058;2024-02-14T12:18:46;12.00;99.90
7411;DHT22;3747;48.628;9.058;2024-02-14T12:21:13;12.10;99.90
7411;DHT22;3747;48.628;9.058;2024-02-14T12:23:41;12.30;99.90
7411;DHT22;3747;48.628;9.058;2024-02-14T12:26:08;12.20;99.90
7411;DHT22;3747;48.628;9.058;2024-02-14T12:28:40;12.30;99.90
7411;DHT22;3747;48.628;9.058;2024-02-14T12:31:08;12.40;99.90
7411;DHT22;3747;48.628;9.058;2024-02-14T12:33:34;12.50;99.90
7411;DHT22;3747;48.628;9.058;2024-02-14T12:36:06;12.50;99.90
7411;DHT22;3747;48.628;9.058;2024-02-14T12:38:33;12.50;99.90
7411;DHT22;3747;48.628;9.058;2024-02-14T12:41:01;12.40;99.90
7411;DHT22;3747;48.628;9.058;2024-02-14T12:43:29;12.30;99.90
7411;DHT22;3747;48.628;9.058;2024-02-14T12:45:55;12.20;99.90
7411;DHT22;3747;48.628;9.058;2024-02-14T12:48:23;12.10;99.90
7411;DHT22;3747;48.628;9.058;2024-02-14T12:50:53;12.00;99.90
7411;DHT22;3747;48.628;9.058;2024-02-14T12:53:23;12.00;99.90
7411;DHT22;3747;48.628;9.058;2024-02-14T12:55:49;12.10;99.90
7411;DHT22;3747;48.628;9.058;2024-02-14T12:58:18;12.20;99.90
7411;DHT22;3747;48.628;9.058;2024-02-14T13:00:45;12.50;99.90
7411;DHT22;3747;48.628;9.058;2024-02-14T13:03:13;12.50;99.90
7411;DHT22;3747;48.628;9.058;2024-02-14T13:05:40;12.60;99.90
7411;DHT22;3747;48.628;9.058;2024-02-14T13:08:07;12.60;99.90
7411;DHT22;3747;48.628;9.058;2024-02-14T13:10:36;12.70;99.90
7411;DHT22;3747;48.628;9.058;2024-02-14T13:13:03;12.70;99.90
7411;DHT22;3747;48.628;9.058;2024-02-14T13:15:31;12.80;99.90
7411;DHT22;3747;48.628;9.058;2024-02-14T13:17:58;12.70;99.90
7411;DHT22;3747;48.628;9.058;2024-02-14T13:20:25;12.80;99.90
7411;DHT22;3747;48.628;9.058;2024-02-14T13:22:53;12.80;99.90
7411;DHT22;3747;48.628;9.058;2024-02-14T13:25:20;12.90;99.90
7411;DHT22;3747;48.628;9.058;2024-02-14T13:27:47;12.90;99.90
7411;DHT22;3747;48.628;9.058;2024-02-14T13:30:14;12.90;99.90
7411;DHT22;3747;48.628;9.058;2024-02-14T13:32:41;13.00;99.90
7411;DHT22;3747;48.628;9.058;2024-02-14T13:35:08;12.90;99.90
7411;DHT22;3747;48.628;9.058;2024-02-14T13:37:36;13.20;99.90
7411;DHT22;3747;48.628;9.058;2024-02-14T13:40:04;13.40;99.90
7411;DHT22;3747;48.628;9.058;2024-02-14T13:42:35;13.50;99.90
7411;DHT22;3747;48.628;9.058;2024-02-14T13:45:03;13.50;99.90
7411;DHT22;3747;48.628;9.058;2024-02-14T13:47:30;13.40;99.90
7411;DHT22;3747;48.628;9.058;2024-02-14T13:49:58;13.10;99.90
7411;DHT22;3747;48.628;9.058;2024-02-14T13:52:25;13.00;99.90
7411;DHT22;3747;48.628;9.058;2024-02-14T13:54:51;12.90;99.90
7411;DHT22;3747;48.628;9.058;2024-02-14T13:57:18;12.70;99.90
7411;DHT22;3747;48.628;9.058;2024-02-14T13:59:45;12.60;99.90
7411;DHT22;3747;48.628;9.058;2024-02-14T14:02:12;12.60;99.90
7411;DHT22;3747;48.628;9.058;2024-02-14T14:04:39;12.60;99.90
7411;DHT22;3747;48.628;9.058;2024-02-14T14:07:07;12.50;99.90
7411;DHT22;3747;48.628;9.058;2024-02-14T14:09:33;12.50;99.90
7411;DHT22;3747;48.628;9.058;2024-02-14T14:12:01;12.50;99.90
7411;DHT22;3747;48.628;9.058;2024-02-14T14:14:27;12.50;99.90
7411;DHT22;3747;48.628;9.058;2024-02-14T14:16:55;12.60;99.90
7411;DHT22;3747;48.628;9.058;2024-02-14T14:19:22;12.60;99.90
7411;DHT22;3747;48.628;9.058;2024-02-14T14:21:49;12.70;99.90
7411;DHT22;3747;48.628;9.058;2024-02-14T14:24:19;12.60;99.90
7411;DHT22;3747;48.628;9.058;2024-02-14T14:26:45;12.50;99.90
7411;DHT22;3747;48.628;9.058;2024-02-14T14:29:12;12.40;99.90
7411;DHT22;3747;48.628;9.058;2024-02-14T14:31:39;12.40;99.90
7411;DHT22;3747;48.628;9.058;2024-02-14T14:34:05;12.50;99.90
7411;DHT22;3747;48.628;9.058;2024-02-14T14:36:33;12.50;99.90
7411;DHT22;3747;48.628;9.058;2024-02-14T14:39:02;12.60;99.90
7411;DHT22;3747;48.628;9.058;2024-02-14T14:41:30;12.60;99.90
7411;DHT22;3747;48.628;9.058;2024-02-14T14:43:57;12.70;99.90
7411;DHT22;3747;48.628;9.058;2024-02-14T14:46:24;12.90;99.90
7411;DHT22;3747;48.628;9.058;2024-02-14T14:48:51;12.80;99.90
7411;DHT22;3747;48.628;9.058;2024-02-14T14:51:18;12.90;99.90
7411;DHT22;3747;48.628;9.058;2024-02-14T14:53:45;13.00;99.90
7411;DHT22;3747;48.628;9.058;2024-02-14T14:56:11;13.00;99.90
7411;DHT22;3747;48.628;9.058;2024-02-14T14:58:39;13.00;99.90
7411;DHT22;3747;48.628;9.058;2024-02-14T15:01:08;12.90;99.90
7411;DHT22;3747;48.628;9.058;2024-02-14T15:03:34;12.80;99.90
7411;DHT22;3747;48.628;9.058;2024-02-14T15:06:01;12.80;99.90
7411;DHT22;3747;48.628;9.058;2024-02-14T15:08:28;12.70;99.90
7411;DHT22;3747;48.628;9.058;2024-02-14T15:10:55;12.90;99.90
7411;DHT22;3747;48.628;9.058;2024-02-14T15:13:23;13.00;99.90
7411;DHT22;3747;48.628;9.058;2024-02-14T15:15:51;13.10;99.90
7411;DHT22;3747;48.628;9.058;2024-02-14T15:18:19;13.10;99.90
7411;DHT22;3747;48.628;9.058;2024-02-14T15:20:46;13.10;99.90
7411;DHT22;3747;48.628;9.058;2024-02-14T15:23:13;13.10;99.90
7411;DHT22;3747;48.628;9.058;2024-02-14T15:25:40;13.00;99.90
7411;DHT22;3747;48.628;9.058;2024-02-14T15:28:08;12.90;99.90
7411;DHT22;3747;48.628;9.058;2024-02-14T15:30:38;12.80;99.90
7411;DHT22;3747;48.628;9.058;2024-02-14T15:33:24;12.60;99.90
7411;DHT22;3747;48.628;9.058;2024-02-14T15:35:51;12.30;99.90
7411;DHT22;3747;48.628;9.058;2024-02-14T15:38:18;12.10;99.90
7411;DHT22;3747;48.628;9.058;2024-02-14T15:40:45;12.00;99.90
7411;DHT22;3747;48.628;9.058;2024-02-14T15:43:14;11.80;99.90
7411;DHT22;3747;48.628;9.058;2024-02-14T15:45:40;11.80;99.90
7411;DHT22;3747;48.628;9.058;2024-02-14T15:48:07;11.80;99.90
7411;DHT22;3747;48.628;9.058;2024-02-14T15:50:36;11.80;99.90
7411;DHT22;3747;48.628;9.058;2024-02-14T15:53:03;11.80;99.90
7411;DHT22;3747;48.628;9.058;2024-02-14T15:55:30;11.70;99.90
7411;DHT22;3747;48.628;9.058;2024-02-14T15:57:57;11.70;99.90
7411;DHT22;3747;48.628;9.058;2024-02-14T16:00:24;11.60;99.90
7411;DHT22;3747;48.628;9.058;2024-02-14T16:02:52;11.60;99.90
7411;DHT22;3747;48.628;9.058;2024-02-14T16:05:19;11.60;99.90
7411;DHT22;3747;48.628;9.058;2024-02-14T16:07:56;11.60;99.90
7411;DHT22;3747;48.628;9.058;2024-02-14T16:10:23;11.60;99.90
7411;DHT22;3747;48.628;9.058;2024-02-14T16:12:49;11.50;99.90
7411;DHT22;3747;48.628;9.058;2024-02-14T16:15:17;11.60;99.90